Time;durP1;ratioP1;P1;durP2;ratioP2;P2;SDS_P1;SDS_P2;PMS_P1;PMS_P2;Temp;Humidity;BMP_temperature;BMP_pressure;BME280_temperature;BME280_humidity;BME280_pressure;Samples;Min_cycle;Max_cycle;Signal;HPM_P1;HPM_P2
2022/09/11 00:02:15;;;;;;;8.02;3.30;;;15.40;99.90;;;;;;2585375;54;20026;31
2022/09/11 00:04:47;;;;;;;3.25;2.40;;;15.50;99.90;;;;;;2585339;54;20576;31
2022/09/11 00:07:22;;;;;;;3.85;3.28;;;15.40;99.90;;;;;;2604134;47;20297;31
2022/09/11 00:09:55;;;;;;;3.72;2.50;;;15.40;99.90;;;;;;2683166;39;20466;31
2022/09/11 00:12:32;;;;;;;4.00;2.10;;;15.30;99.90;;;;;;2585192;54;20026;31
2022/09/11 00:15:04;;;;;;;3.77;1.93;;;15.40;99.90;;;;;;2603893;47;20027;31
2022/09/11 00:17:38;;;;;;;5.60;2.85;;;15.40;99.90;;;;;;2585161;54;20368;31
2022/09/11 00:20:12;;;;;;;5.50;2.90;;;15.30;99.90;;;;;;2585077;54;20053;31
2022/09/11 00:22:46;;;;;;;6.30;3.50;;;15.30;99.90;;;;;;2585342;54;20919;31
2022/09/11 00:25:18;;;;;;;6.20;3.90;;;15.60;99.90;;;;;;2585226;54;21294;31
2022/09/11 00:27:56;;;;;;;6.63;2.55;;;15.30;99.90;;;;;;2584327;54;20022;31
2022/09/11 00:30:28;;;;;;;4.50;3.65;;;15.20;99.90;;;;;;2585157;54;20920;31
2022/09/11 00:33:02;;;;;;;4.55;3.97;;;15.20;99.90;;;;;;2683870;39;20505;31
2022/09/11 00:35:36;;;;;;;5.05;3.95;;;15.30;99.90;;;;;;2585879;54;20026;31
2022/09/11 00:38:10;;;;;;;3.60;3.20;;;15.20;99.90;;;;;;2585798;54;20980;31
2022/09/11 00:40:50;;;;;;;4.67;4.00;;;15.30;99.90;;;;;;2584972;54;19960;31
2022/09/11 00:43:27;;;;;;;7.90;3.80;;;15.30;99.90;;;;;;2585982;54;20118;31
2022/09/11 00:46:02;;;;;;;7.30;3.97;;;15.20;99.90;;;;;;2585860;54;20023;31
2022/09/11 00:48:36;;;;;;;8.35;4.55;;;15.20;99.90;;;;;;2684075;39;22211;31
2022/09/11 00:51:09;;;;;;;4.47;2.95;;;15.20;99.90;;;;;;2585832;54;20153;31
2022/09/11 00:53:41;;;;;;;3.78;3.47;;;15.20;99.90;;;;;;2586021;54;20026;31
2022/09/11 00:56:16;;;;;;;5.90;4.20;;;15.20;99.90;;;;;;2585996;54;20087;31
2022/09/11 00:58:53;;;;;;;6.28;4.85;;;15.20;99.90;;;;;;2586106;54;20053;31
2022/09/11 01:01:27;;;;;;;7.53;4.55;;;15.20;99.90;;;;;;2585675;54;20133;31
2022/09/11 01:04:03;;;;;;;6.50;4.82;;;15.20;99.90;;;;;;2585953;54;20030;31
2022/09/11 01:06:37;;;;;;;8.77;4.27;;;15.20;99.90;;;;;;2604429;46;20890;31
2022/09/11 01:09:10;;;;;;;4.32;3.90;;;15.10;99.90;;;;;;2604307;46;20073;31
2022/09/11 01:11:49;;;;;;;6.65;3.35;;;15.10;99.90;;;;;;2586027;54;20874;31
2022/09/11 01:14:34;;;;;;;4.97;3.80;;;15.10;99.90;;;;;;2604037;46;19960;31
2022/09/11 01:17:14;;;;;;;4.18;3.53;;;15.10;99.90;;;;;;2585838;54;20809;31
2022/09/11 01:20:06;;;;;;;5.95;3.85;;;15.10;99.90;;;;;;2585670;54;20077;31
2022/09/11 01:23:00;;;;;;;6.00;3.65;;;15.10;99.90;;;;;;2585914;54;20984;31
2022/09/11 01:25:38;;;;;;;9.98;4.63;;;15.00;99.90;;;;;;2585470;54;19941;31
2022/09/11 01:28:13;;;;;;;6.13;3.88;;;15.10;99.90;;;;;;2585761;54;20929;31
2022/09/11 01:30:48;;;;;;;5.50;4.00;;;15.00;99.90;;;;;;2586209;54;20023;31
2022/09/11 01:33:22;;;;;;;5.53;4.30;;;15.00;99.90;;;;;;2585875;54;19934;31
2022/09/11 01:35:57;;;;;;;7.10;4.25;;;15.00;99.90;;;;;;2684010;39;22538;31
2022/09/11 01:38:34;;;;;;;7.22;3.88;;;15.00;99.90;;;;;;2585822;54;20959;31
2022/09/11 01:41:09;;;;;;;4.75;3.80;;;14.90;99.90;;;;;;2684115;39;21046;31
2022/09/11 01:43:41;;;;;;;5.50;3.80;;;15.00;99.90;;;;;;2585758;54;19997;31
2022/09/11 01:46:21;;;;;;;7.10;4.30;;;15.00;99.90;;;;;;2585647;54;21081;31
2022/09/11 01:49:02;;;;;;;7.40;4.90;;;14.90;99.90;;;;;;2585611;54;20026;31
2022/09/11 01:51:35;;;;;;;4.20;3.60;;;14.90;99.90;;;;;;2604018;46;22436;31
2022/09/11 01:54:11;;;;;;;4.22;3.35;;;14.90;99.90;;;;;;2604165;46;20982;31
2022/09/11 01:56:46;;;;;;;7.35;4.20;;;15.00;99.90;;;;;;2585723;54;20085;31
2022/09/11 01:59:24;;;;;;;4.38;3.88;;;15.10;99.90;;;;;;2585744;54;20077;31
2022/09/11 02:02:02;;;;;;;9.30;4.53;;;15.00;99.90;;;;;;2585303;54;20037;31
2022/09/11 02:04:38;;;;;;;6.57;4.40;;;15.00;99.90;;;;;;2585940;54;20238;31
2022/09/11 02:07:12;;;;;;;;;;;15.10;99.90;;;;;;2604446;46;20112;31
2022/09/11 02:09:48;;;;;;;6.97;3.60;;;15.00;99.90;;;;;;2585923;54;19935;31
2022/09/11 02:12:20;;;;;;;6.20;4.40;;;15.00;99.90;;;;;;2586013;54;20903;31
2022/09/11 02:14:52;;;;;;;8.35;5.20;;;15.00;99.90;;;;;;2683800;39;21098;31
2022/09/11 02:17:31;;;;;;;9.73;5.10;;;15.00;99.90;;;;;;2683845;39;21074;31
2022/09/11 02:20:03;;;;;;;9.05;5.00;;;14.90;99.90;;;;;;2585842;54;20920;31
2022/09/11 02:22:37;;;;;;;7.50;4.75;;;14.90;99.90;;;;;;2586054;54;22394;31
2022/09/11 02:25:12;;;;;;;5.60;3.42;;;14.90;99.90;;;;;;2585849;54;20931;31
2022/09/11 02:27:47;;;;;;;6.50;4.53;;;14.90;99.90;;;;;;2585734;54;19941;31
2022/09/11 02:30:22;;;;;;;8.18;4.97;;;14.80;99.90;;;;;;2585451;54;20042;31
2022/09/11 02:33:00;;;;;;;7.03;4.50;;;14.80;99.90;;;;;;2585622;54;20952;31
2022/09/11 02:35:42;;;;;;;12.03;5.03;;;14.80;99.90;;;;;;2585670;54;20023;31
2022/09/11 02:38:19;;;;;;;5.77;4.33;;;14.90;99.90;;;;;;2604204;46;20242;31
2022/09/11 02:40:55;;;;;;;4.78;4.10;;;14.70;99.90;;;;;;2585198;54;20104;31
2022/09/11 02:43:38;;;;;;;9.43;5.50;;;14.70;99.90;;;;;;2585698;54;20057;31
2022/09/11 02:46:19;;;;;;;6.57;5.40;;;15.40;99.90;;;;;;2585379;54;20089;31
2022/09/11 02:48:59;;;;;;;8.77;5.27;;;14.60;99.90;;;;;;2585655;54;20953;31
2022/09/11 02:51:35;;;;;;;8.90;6.07;;;14.60;99.90;;;;;;2585762;54;20089;31
2022/09/11 02:54:12;;;;;;;9.80;5.10;;;14.70;99.90;;;;;;2585370;54;20863;31
2022/09/11 02:56:48;;;;;;;9.13;5.23;;;14.60;99.90;;;;;;2585096;54;21594;31
2022/09/11 03:01:52;;;;;;;7.53;5.43;;;14.60;99.90;;;;;;2585271;54;20745;31
2022/09/11 03:04:33;;;;;;;6.38;5.53;;;14.60;99.90;;;;;;2585251;54;20022;31
2022/09/11 03:07:08;;;;;;;6.38;5.15;;;14.50;99.90;;;;;;2585592;54;20022;31
2022/09/11 03:09:42;;;;;;;5.10;4.00;;;14.50;99.90;;;;;;2604158;46;22405;31
2022/09/11 03:12:22;;;;;;;8.60;5.40;;;14.50;99.90;;;;;;2585294;54;25022;31
2022/09/11 03:14:55;;;;;;;5.90;4.25;;;14.50;99.90;;;;;;2683624;39;22549;31
2022/09/11 03:17:29;;;;;;;9.48;6.97;;;14.40;99.90;;;;;;2585588;54;20030;31
2022/09/11 03:20:07;;;;;;;9.43;6.05;;;14.40;99.90;;;;;;2585495;54;20027;31
2022/09/11 03:22:39;;;;;;;13.40;6.20;;;14.40;99.90;;;;;;2604044;46;22433;31
2022/09/11 03:25:14;;;;;;;10.75;8.27;;;14.40;99.90;;;;;;2603900;46;25064;31
2022/09/11 03:27:47;;;;;;;8.13;6.20;;;14.40;99.90;;;;;;2585490;54;19968;31
2022/09/11 03:30:21;;;;;;;14.20;8.30;;;14.50;99.90;;;;;;2585418;54;20910;31
2022/09/11 03:32:53;;;;;;;8.40;7.47;;;14.40;99.90;;;;;;2585540;54;21167;31
2022/09/11 03:35:30;;;;;;;7.88;7.00;;;14.40;99.90;;;;;;2585218;54;20679;31
2022/09/11 03:38:02;;;;;;;12.40;8.75;;;14.40;99.90;;;;;;2585407;54;19938;31
2022/09/11 03:40:36;;;;;;;10.18;9.13;;;14.40;99.90;;;;;;2585351;54;20855;31
2022/09/11 03:43:11;;;;;;;11.18;8.23;;;14.40;99.90;;;;;;2585262;54;20030;31
2022/09/11 03:45:43;;;;;;;9.45;7.70;;;14.40;99.90;;;;;;2585658;54;22384;31
2022/09/11 03:48:17;;;;;;;12.75;8.50;;;14.50;99.90;;;;;;2585232;54;25114;31
2022/09/11 03:50:55;;;;;;;13.65;8.85;;;14.40;99.90;;;;;;2585395;54;21015;31
2022/09/11 03:53:27;;;;;;;9.75;7.10;;;14.40;99.90;;;;;;2585425;54;20777;31
2022/09/11 03:56:02;;;;;;;9.60;8.00;;;14.40;99.90;;;;;;2603632;46;20911;31
2022/09/11 03:58:43;;;;;;;9.20;8.30;;;14.40;99.90;;;;;;2585525;54;20972;31
2022/09/11 04:01:18;;;;;;;8.45;7.60;;;14.50;99.90;;;;;;2585091;54;20097;31
2022/09/11 04:03:52;;;;;;;13.97;8.30;;;14.40;99.90;;;;;;2585152;54;20026;31
2022/09/11 04:06:36;;;;;;;11.50;8.98;;;14.50;99.90;;;;;;2585644;54;20104;31
2022/09/11 04:09:10;;;;;;;10.75;8.00;;;14.40;99.90;;;;;;2586047;54;20827;31
2022/09/11 04:11:44;;;;;;;12.20;10.30;;;14.40;99.90;;;;;;2586214;54;20897;31
2022/09/11 04:14:29;;;;;;;12.80;9.47;;;14.40;99.90;;;;;;2585777;54;20955;31
2022/09/11 04:17:02;;;;;;;9.10;8.20;;;14.40;99.90;;;;;;2684183;39;21114;31
2022/09/11 04:19:34;;;;;;;12.93;9.02;;;14.30;99.90;;;;;;2585934;54;21012;31
2022/09/11 04:22:11;;;;;;;10.02;8.40;;;14.40;99.90;;;;;;2604330;46;20122;31
2022/09/11 04:24:45;;;;;;;11.50;9.40;;;14.40;99.90;;;;;;2586173;54;20022;31
2022/09/11 04:27:18;;;;;;;12.82;9.27;;;14.30;99.90;;;;;;2586066;54;20100;31
2022/09/11 04:29:51;;;;;;;11.20;9.50;;;14.30;99.90;;;;;;2604876;46;20029;31
2022/09/11 04:32:27;;;;;;;9.95;7.47;;;14.40;99.90;;;;;;2585782;54;20985;31
2022/09/11 04:35:02;;;;;;;14.00;8.80;;;14.40;99.90;;;;;;2586240;54;20054;31
2022/09/11 04:37:43;;;;;;;7.57;4.47;;;14.40;99.90;;;;;;2585914;54;20082;31
2022/09/11 04:40:17;;;;;;;12.13;7.93;;;14.50;99.90;;;;;;2585858;54;20093;31
2022/09/11 04:42:51;;;;;;;9.18;6.47;;;14.50;99.90;;;;;;2585781;54;20801;31
2022/09/11 04:45:25;;;;;;;9.65;6.07;;;14.60;99.90;;;;;;2585977;54;20026;31
2022/09/11 04:47:59;;;;;;;9.98;7.32;;;14.60;99.90;;;;;;2585777;54;20927;31
2022/09/11 04:50:34;;;;;;;8.40;7.07;;;14.60;99.90;;;;;;2603192;46;20046;31
2022/09/11 04:53:26;;;;;;;8.45;6.60;;;14.60;99.90;;;;;;2585727;54;20058;31
2022/09/11 04:56:06;;;;;;;7.32;5.72;;;14.60;99.90;;;;;;2586145;54;20030;31
2022/09/11 04:58:45;;;;;;;11.03;7.50;;;14.70;99.90;;;;;;2586006;54;20031;31
2022/09/11 05:01:18;;;;;;;10.45;6.90;;;14.70;99.90;;;;;;2684224;39;21251;31
2022/09/11 05:03:59;;;;;;;8.10;7.10;;;14.60;99.90;;;;;;2585813;54;20941;31
2022/09/11 05:06:36;;;;;;;11.25;8.40;;;14.60;99.90;;;;;;2585847;54;20797;31
2022/09/11 05:09:19;;;;;;;9.93;7.60;;;14.60;99.90;;;;;;2604413;46;20806;31
2022/09/11 05:11:53;;;;;;;9.02;6.78;;;14.60;99.90;;;;;;2585959;54;20086;31
2022/09/11 05:14:31;;;;;;;8.07;6.07;;;14.60;99.90;;;;;;2585921;54;20026;31
2022/09/11 05:17:08;;;;;;;9.25;6.05;;;14.60;99.90;;;;;;2586110;54;20026;31
2022/09/11 05:19:48;;;;;;;8.93;5.63;;;14.70;99.90;;;;;;2604473;47;20942;31
2022/09/11 05:22:22;;;;;;;8.25;6.50;;;14.70;99.90;;;;;;2604218;46;19942;31
2022/09/11 05:25:03;;;;;;;10.25;6.35;;;14.70;99.90;;;;;;2683991;39;20999;31
2022/09/11 05:27:39;;;;;;;8.88;5.90;;;14.70;99.90;;;;;;2585699;54;20054;31
2022/09/11 05:30:14;;;;;;;6.75;6.05;;;14.80;99.90;;;;;;2585891;54;21163;31
2022/09/11 05:32:48;;;;;;;9.80;6.97;;;14.80;99.90;;;;;;2604099;46;20786;31
2022/09/11 05:35:22;;;;;;;8.57;5.93;;;14.70;99.90;;;;;;2585635;54;20034;31
2022/09/11 05:37:57;;;;;;;7.60;5.65;;;14.80;99.90;;;;;;2586011;54;20905;31
2022/09/11 05:40:33;;;;;;;7.95;6.32;;;14.70;99.90;;;;;;2604191;46;19986;31
2022/09/11 05:43:07;;;;;;;9.77;6.63;;;14.80;99.90;;;;;;2585795;54;20030;31
2022/09/11 05:45:44;;;;;;;8.13;6.27;;;14.90;99.90;;;;;;2604341;46;20930;31
2022/09/11 05:48:25;;;;;;;7.72;6.53;;;14.90;99.90;;;;;;2585553;54;20711;31
2022/09/11 05:51:02;;;;;;;8.13;5.82;;;14.90;99.90;;;;;;2585854;54;20961;31
2022/09/11 05:53:38;;;;;;;7.90;6.57;;;14.90;99.90;;;;;;2585652;54;20902;31
2022/09/11 05:56:18;;;;;;;8.85;6.50;;;14.90;99.90;;;;;;2604499;46;20025;31
2022/09/11 05:58:53;;;;;;;7.80;6.30;;;14.90;99.90;;;;;;2585876;54;20057;31
2022/09/11 06:01:34;;;;;;;13.85;7.40;;;15.00;99.90;;;;;;2585917;54;20033;31
2022/09/11 06:04:20;;;;;;;9.40;8.48;;;15.00;99.90;;;;;;2585546;54;20805;31
2022/09/11 06:06:56;;;;;;;10.68;9.52;;;15.00;99.90;;;;;;2585742;54;20026;31
2022/09/11 06:09:31;;;;;;;14.60;9.53;;;15.00;99.90;;;;;;2585931;54;20923;31
2022/09/11 06:12:11;;;;;;;11.45;9.52;;;15.10;99.90;;;;;;2604508;46;21142;31
2022/09/11 06:14:48;;;;;;;15.63;10.10;;;15.10;99.90;;;;;;2585494;54;20806;31
2022/09/11 06:17:27;;;;;;;;;;;15.10;99.90;;;;;;2585736;54;20062;31
2022/09/11 06:20:02;;;;;;;12.90;11.10;;;15.10;99.90;;;;;;2585764;54;20017;31
2022/09/11 06:22:36;;;;;;;16.90;12.50;;;15.20;99.90;;;;;;2585215;54;20377;31
2022/09/11 06:25:14;;;;;;;15.68;12.70;;;15.10;99.90;;;;;;2585630;54;20929;31
2022/09/11 06:27:51;;;;;;;20.20;13.20;;;15.10;99.90;;;;;;2585841;54;20030;31
2022/09/11 06:30:26;;;;;;;16.63;12.75;;;15.10;99.90;;;;;;2603198;46;20075;31
2022/09/11 06:33:03;;;;;;;18.33;12.70;;;15.20;99.90;;;;;;2585478;54;20093;31
2022/09/11 06:35:36;;;;;;;19.17;14.57;;;15.20;99.90;;;;;;2683743;39;22236;31
2022/09/11 06:38:13;;;;;;;18.35;13.05;;;15.20;99.90;;;;;;2585640;54;20085;31
2022/09/11 06:40:50;;;;;;;15.80;12.30;;;15.20;99.90;;;;;;2585761;54;20862;31
2022/09/11 06:43:26;;;;;;;17.35;13.05;;;15.20;99.90;;;;;;2585477;54;20736;31
2022/09/11 06:46:06;;;;;;;16.37;13.77;;;15.20;99.90;;;;;;2584596;54;20016;31
2022/09/11 06:48:42;;;;;;;14.65;12.90;;;15.20;99.90;;;;;;2585312;54;20085;31
2022/09/11 06:51:16;;;;;;;18.00;14.70;;;15.20;99.90;;;;;;2585597;54;20807;31
2022/09/11 06:53:51;;;;;;;16.03;14.13;;;15.20;99.90;;;;;;2585448;54;20915;31
2022/09/11 06:56:26;;;;;;;22.57;15.43;;;15.20;99.90;;;;;;2585513;54;20246;31
2022/09/11 06:59:09;;;;;;;22.35;15.60;;;15.20;99.90;;;;;;2585193;54;20031;31
2022/09/11 07:01:41;;;;;;;17.70;15.80;;;15.20;99.90;;;;;;2585680;54;20922;31
2022/09/11 07:04:23;;;;;;;16.95;15.15;;;15.20;99.90;;;;;;2603824;46;20054;31
2022/09/11 07:06:56;;;;;;;19.08;15.75;;;15.20;99.90;;;;;;2585404;54;20937;31
2022/09/11 07:09:30;;;;;;;22.20;16.40;;;15.20;99.90;;;;;;2585728;54;20065;31
2022/09/11 07:12:05;;;;;;;22.45;16.60;;;15.20;99.90;;;;;;2585278;54;20053;31
2022/09/11 07:14:43;;;;;;;20.25;15.13;;;15.20;99.90;;;;;;2585455;54;20489;31
2022/09/11 07:17:23;;;;;;;22.02;16.05;;;15.30;99.90;;;;;;2585583;54;20891;31
2022/09/11 07:19:58;;;;;;;19.10;14.90;;;15.30;99.90;;;;;;2585549;54;20743;31
2022/09/11 07:22:36;;;;;;;21.20;16.20;;;15.30;99.90;;;;;;2585492;54;20032;31
2022/09/11 07:25:10;;;;;;;18.90;14.52;;;15.40;99.90;;;;;;2585009;54;20985;31
2022/09/11 07:27:50;;;;;;;21.50;15.20;;;15.40;99.90;;;;;;2585449;54;20893;31
2022/09/11 07:30:28;;;;;;;19.83;16.17;;;15.50;99.90;;;;;;2585658;54;19934;31
2022/09/11 07:33:06;;;;;;;22.65;16.83;;;15.50;99.90;;;;;;2585563;54;21013;31
2022/09/11 07:35:42;;;;;;;20.35;16.30;;;15.50;99.90;;;;;;2585440;54;20027;31
2022/09/11 07:38:15;;;;;;;;;;;15.50;99.90;;;;;;2585709;54;20995;31
2022/09/11 07:40:51;;;;;;;19.50;15.17;;;15.60;99.90;;;;;;2604010;46;19954;31
2022/09/11 07:43:25;;;;;;;20.80;15.40;;;15.60;99.90;;;;;;2585420;54;21024;31
2022/09/11 07:46:03;;;;;;;19.80;15.10;;;15.60;99.90;;;;;;2585358;54;20027;31
2022/09/11 07:48:39;;;;;;;16.90;11.30;;;15.60;99.90;;;;;;2585233;54;20184;31
2022/09/11 07:51:14;;;;;;;19.83;15.75;;;15.70;99.90;;;;;;2603834;46;20996;31
2022/09/11 07:53:50;;;;;;;15.32;13.68;;;15.70;99.90;;;;;;2683325;39;22313;31
2022/09/11 07:56:26;;;;;;;20.55;15.10;;;15.80;99.90;;;;;;2585413;54;20096;31
2022/09/11 07:59:03;;;;;;;14.23;12.73;;;15.80;99.90;;;;;;2584299;54;20093;31
2022/09/11 08:01:41;;;;;;;16.15;12.75;;;15.80;99.90;;;;;;2584311;54;20999;31
2022/09/11 08:04:17;;;;;;;13.32;11.93;;;15.90;99.90;;;;;;2584455;54;21910;31
2022/09/11 08:06:52;;;;;;;11.70;10.10;;;16.00;99.90;;;;;;2584309;54;20981;31
2022/09/11 08:09:34;;;;;;;11.93;10.63;;;16.00;99.90;;;;;;2584512;54;20038;31
2022/09/11 08:12:10;;;;;;;13.88;9.73;;;16.10;99.90;;;;;;2585272;54;20905;31
2022/09/11 08:14:46;;;;;;;11.10;9.10;;;16.30;99.90;;;;;;2585269;54;19938;31
2022/09/11 08:17:27;;;;;;;10.07;9.07;;;16.40;99.90;;;;;;2585279;54;20026;31
2022/09/11 08:20:01;;;;;;;11.10;10.00;;;16.40;99.90;;;;;;2603733;47;20914;31
2022/09/11 08:22:35;;;;;;;11.50;10.15;;;16.50;99.90;;;;;;2584459;54;20897;31
2022/09/11 08:25:12;;;;;;;10.82;9.70;;;16.50;99.90;;;;;;2584973;54;21355;31
2022/09/11 08:27:46;;;;;;;11.60;9.75;;;16.60;99.90;;;;;;2603969;47;20878;31
2022/09/11 08:30:27;;;;;;;11.50;10.30;;;16.70;99.90;;;;;;2753276;31;21218;31
2022/09/11 08:33:09;;;;;;;12.90;11.50;;;16.80;99.90;;;;;;2600524;47;20151;31
2022/09/11 08:35:44;;;;;;;12.90;11.20;;;16.80;99.90;;;;;;2585245;54;20030;31
2022/09/11 08:38:22;;;;;;;13.10;11.80;;;16.80;99.90;;;;;;2585216;54;20197;31
2022/09/11 08:40:56;;;;;;;16.10;11.90;;;16.70;99.90;;;;;;2603687;47;21016;31
2022/09/11 08:43:34;;;;;;;15.95;12.60;;;16.60;99.90;;;;;;2584774;54;20031;31
2022/09/11 08:46:09;;;;;;;12.20;11.00;;;16.50;99.90;;;;;;2683421;39;22471;31
2022/09/11 08:48:50;;;;;;;13.23;11.30;;;16.50;99.90;;;;;;2585189;54;20026;31
2022/09/11 08:51:24;;;;;;;16.50;11.40;;;16.50;99.90;;;;;;2683184;39;22470;31
2022/09/11 08:53:58;;;;;;;13.15;10.80;;;16.50;99.90;;;;;;2585803;54;20246;31
2022/09/11 08:56:35;;;;;;;11.85;10.65;;;16.40;99.90;;;;;;2702565;39;22308;31
2022/09/11 08:59:19;;;;;;;12.55;11.35;;;16.40;99.90;;;;;;2585990;54;21537;31
2022/09/11 09:01:58;;;;;;;12.55;11.35;;;16.40;99.90;;;;;;2585720;54;21047;31
2022/09/11 09:05:01;;;;;;;15.90;12.23;;;16.50;99.90;;;;;;2683801;39;21060;31
2022/09/11 09:07:39;;;;;;;14.52;11.45;;;16.50;99.90;;;;;;2585942;54;20780;31
2022/09/11 09:10:17;;;;;;;14.73;12.30;;;16.60;99.90;;;;;;2585896;54;20991;31
2022/09/11 09:12:54;;;;;;;17.60;12.35;;;16.70;99.90;;;;;;2586045;54;20770;31
2022/09/11 09:15:41;;;;;;;13.20;11.40;;;16.80;99.90;;;;;;2604218;46;22536;31
2022/09/11 09:18:20;;;;;;;11.98;10.77;;;16.90;99.90;;;;;;2683305;39;21521;31
2022/09/11 09:21:03;;;;;;;11.70;10.47;;;16.90;99.90;;;;;;2584973;54;20027;31
2022/09/11 09:23:42;;;;;;;13.18;11.80;;;17.00;99.90;;;;;;2585764;54;20892;31
2022/09/11 09:26:17;;;;;;;11.85;10.65;;;17.00;99.90;;;;;;2585755;54;19942;31
2022/09/11 09:28:56;;;;;;;13.13;10.43;;;17.00;99.90;;;;;;2585741;54;20838;31
2022/09/11 09:31:36;;;;;;;11.65;10.48;;;17.10;99.90;;;;;;2585391;54;19935;31
2022/09/11 09:34:15;;;;;;;13.35;9.50;;;17.10;99.90;;;;;;2585753;54;20035;31
2022/09/11 09:36:55;;;;;;;10.52;9.50;;;17.20;99.90;;;;;;2585534;54;20093;31
2022/09/11 09:39:30;;;;;;;11.55;9.90;;;17.30;99.90;;;;;;2588133;46;21931;31
2022/09/11 09:42:30;;;;;;;10.50;8.83;;;17.40;99.90;;;;;;2585903;54;20026;31
2022/09/11 09:45:22;;;;;;;9.70;8.70;;;17.50;99.90;;;;;;2585612;54;20345;31
2022/09/11 09:47:55;;;;;;;10.00;8.85;;;17.60;99.90;;;;;;2585221;54;20968;31
2022/09/11 09:50:32;;;;;;;8.97;8.07;;;17.60;99.90;;;;;;2585017;54;20026;31
2022/09/11 09:53:15;;;;;;;9.25;8.20;;;17.70;99.90;;;;;;2585916;54;20035;31
2022/09/11 09:55:54;;;;;;;12.15;9.73;;;17.90;99.90;;;;;;2584843;46;20825;31
2022/09/11 09:58:28;;;;;;;9.35;7.43;;;18.00;99.90;;;;;;2585804;54;20920;31
2022/09/11 10:01:03;;;;;;;7.25;6.63;;;18.20;99.90;;;;;;2585671;54;19934;31
2022/09/11 10:03:38;;;;;;;6.47;5.93;;;18.20;99.90;;;;;;2600658;46;21987;31
2022/09/11 10:06:11;;;;;;;6.80;6.05;;;18.20;99.90;;;;;;2604309;46;20895;31
2022/09/11 10:08:51;;;;;;;6.07;5.47;;;18.00;99.90;;;;;;2585702;54;20723;31
2022/09/11 10:11:30;;;;;;;7.57;6.65;;;18.00;99.90;;;;;;2585516;54;20751;31
2022/09/11 10:14:06;;;;;;;9.25;8.13;;;17.90;99.90;;;;;;2604008;46;20905;31
2022/09/11 10:16:50;;;;;;;8.57;7.67;;;17.80;99.90;;;;;;2585725;54;20053;31
2022/09/11 10:19:24;;;;;;;9.13;7.65;;;17.80;99.90;;;;;;2585846;54;20049;31
2022/09/11 10:22:03;;;;;;;8.73;7.93;;;17.80;99.90;;;;;;2585751;54;20022;31
2022/09/11 10:24:44;;;;;;;10.00;7.60;;;18.00;99.90;;;;;;2585394;54;20999;31
2022/09/11 10:27:22;;;;;;;9.13;7.90;;;18.20;99.90;;;;;;2603500;46;22773;31
2022/09/11 10:30:08;;;;;;;9.50;8.30;;;18.40;99.90;;;;;;2604272;46;19934;31
2022/09/11 10:32:43;;;;;;;9.20;8.30;;;18.60;99.90;;;;;;2604268;46;20037;31
2022/09/11 10:35:18;;;;;;;;;;;18.70;99.90;;;;;;2585699;54;20088;31
2022/09/11 10:38:04;;;;;;;7.65;6.95;;;18.80;99.90;;;;;;2683276;39;21018;31
2022/09/11 10:40:44;;;;;;;7.37;6.67;;;18.90;99.90;;;;;;2585374;54;20756;31
2022/09/11 10:43:23;;;;;;;6.10;5.50;;;19.00;99.90;;;;;;2604200;46;21107;31
2022/09/11 10:46:18;;;;;;;4.75;4.25;;;19.10;99.90;;;;;;2603607;46;20973;31
2022/09/11 10:51:42;;;;;;;4.60;4.00;;;19.10;99.90;;;;;;2585331;54;20053;31
2022/09/11 10:54:52;;;;;;;4.78;4.20;;;19.10;99.90;;;;;;2585303;54;20862;31
2022/09/11 10:57:28;;;;;;;4.70;3.90;;;19.10;99.90;;;;;;2585205;54;21535;31
2022/09/11 11:03:26;;;;;;;4.90;3.83;;;18.90;99.90;;;;;;2585386;54;20804;31
2022/09/11 11:06:06;;;;;;;4.77;3.47;;;18.70;99.90;;;;;;2585508;54;20033;31
2022/09/11 11:08:58;;;;;;;5.05;3.10;;;18.80;99.90;;;;;;2683195;39;20797;31
2022/09/11 11:11:42;;;;;;;6.68;2.78;;;18.60;99.90;;;;;;2585584;54;20030;31
2022/09/11 11:14:30;;;;;;;6.87;3.27;;;18.60;99.90;;;;;;2585252;54;20856;31
2022/09/11 11:17:13;;;;;;;4.80;4.00;;;18.50;99.90;;;;;;2603697;46;20061;31
2022/09/11 11:19:59;;;;;;;7.97;3.95;;;18.50;99.90;;;;;;2584381;54;20073;31
2022/09/11 11:22:49;;;;;;;4.03;3.63;;;18.40;99.90;;;;;;2701704;39;20482;31
2022/09/11 11:25:26;;;;;;;6.07;4.30;;;18.40;99.90;;;;;;2585270;54;22424;31
2022/09/11 11:28:29;;;;;;;5.10;3.70;;;18.50;99.90;;;;;;2604015;46;21023;31
2022/09/11 11:31:11;;;;;;;5.17;4.17;;;18.50;99.90;;;;;;2585357;54;20064;31
2022/09/11 11:34:10;;;;;;;5.35;4.15;;;18.60;99.90;;;;;;2585202;54;20036;31
2022/09/11 11:36:53;;;;;;;6.30;4.10;;;18.60;99.90;;;;;;2585285;54;20787;31
2022/09/11 11:39:27;;;;;;;4.47;4.07;;;18.70;99.90;;;;;;2585390;54;20031;31
2022/09/11 11:42:11;;;;;;;4.38;3.97;;;18.80;99.90;;;;;;2604083;46;21096;31
2022/09/11 11:44:53;;;;;;;5.88;4.03;;;18.80;99.90;;;;;;2585339;54;20832;31
2022/09/11 11:47:31;;;;;;;6.40;4.60;;;18.80;99.90;;;;;;2683170;39;20990;31
2022/09/11 11:50:07;;;;;;;5.57;4.47;;;18.70;99.90;;;;;;2585380;54;21975;31
2022/09/11 11:55:35;;;;;;;6.13;4.40;;;18.70;99.90;;;;;;2585064;54;20961;31
2022/09/11 11:58:09;;;;;;;7.72;4.50;;;18.60;99.90;;;;;;2585279;54;20927;31
2022/09/11 12:00:46;;;;;;;6.80;5.30;;;18.50;99.90;;;;;;2603550;46;20880;31
2022/09/11 12:03:28;;;;;;;7.85;6.60;;;18.40;99.90;;;;;;2585392;54;20027;31
2022/09/11 12:06:03;;;;;;;7.43;6.00;;;18.20;99.90;;;;;;2585083;54;20881;31
2022/09/11 12:08:44;;;;;;;7.30;5.83;;;18.10;99.90;;;;;;2584984;54;20037;31
2022/09/11 12:11:30;;;;;;;6.82;6.10;;;18.00;99.90;;;;;;2585305;54;20916;31
2022/09/11 12:14:03;;;;;;;7.47;6.70;;;17.90;99.90;;;;;;2701831;39;22342;31
2022/09/11 12:16:38;;;;;;;8.60;6.37;;;17.80;99.90;;;;;;2585084;54;20952;31
2022/09/11 12:19:18;;;;;;;7.95;7.15;;;17.80;99.90;;;;;;2584762;54;20834;31
2022/09/11 12:24:21;;;;;;;9.73;7.70;;;17.70;99.90;;;;;;2585248;54;20108;31
2022/09/11 12:27:36;;;;;;;7.80;7.07;;;17.70;99.90;;;;;;2603805;47;20033;31
2022/09/11 12:30:10;;;;;;;9.85;7.30;;;17.80;99.90;;;;;;2585902;54;20895;31
2022/09/11 12:32:46;;;;;;;12.40;6.95;;;17.80;99.90;;;;;;2604567;46;21875;31
2022/09/11 12:35:26;;;;;;;7.40;6.70;;;18.10;99.90;;;;;;2586132;54;20037;31
2022/09/11 12:38:17;;;;;;;8.10;7.00;;;18.20;99.90;;;;;;2584895;54;20057;31
2022/09/11 12:40:54;;;;;;;7.23;6.30;;;18.20;99.90;;;;;;2585842;54;21017;31
2022/09/11 12:43:47;;;;;;;8.97;6.40;;;18.20;99.90;;;;;;2585888;54;20030;31
2022/09/11 12:46:57;;;;;;;7.05;5.93;;;18.20;99.90;;;;;;2585802;54;20030;31
2022/09/11 12:49:36;;;;;;;7.28;6.07;;;18.20;99.90;;;;;;2585507;54;20030;31
2022/09/11 12:52:30;;;;;;;9.70;5.90;;;18.20;99.90;;;;;;2604698;46;20887;31
2022/09/11 12:55:23;;;;;;;5.85;5.20;;;18.20;99.90;;;;;;2585910;54;21283;31
2022/09/11 12:58:01;;;;;;;5.05;4.50;;;18.20;99.90;;;;;;2604165;46;20913;31
2022/09/11 13:00:39;;;;;;;5.10;4.60;;;18.20;99.90;;;;;;2586035;54;19941;31
2022/09/11 13:03:19;;;;;;;6.57;4.22;;;18.20;99.90;;;;;;2585755;54;20026;31
2022/09/11 13:06:01;;;;;;;5.53;4.85;;;18.30;99.90;;;;;;2584815;54;20023;31
2022/09/11 13:08:39;;;;;;;5.70;5.20;;;18.30;99.90;;;;;;2585302;54;20050;31
2022/09/11 13:11:42;;;;;;;6.43;5.20;;;18.40;99.90;;;;;;2586047;54;20989;31
2022/09/11 13:14:49;;;;;;;5.20;4.70;;;18.50;99.90;;;;;;2604147;46;19934;31
2022/09/11 13:17:29;;;;;;;5.45;4.53;;;18.50;99.90;;;;;;2585788;54;21020;31
2022/09/11 13:20:22;;;;;;;4.82;4.28;;;18.70;99.90;;;;;;2684072;39;22307;31
2022/09/11 13:23:12;;;;;;;5.30;4.80;;;18.80;99.90;;;;;;2586064;54;20026;31
2022/09/11 13:25:48;;;;;;;4.80;4.28;;;18.80;99.90;;;;;;2585914;54;20057;31
2022/09/11 13:28:29;;;;;;;6.10;4.30;;;18.90;99.90;;;;;;2585451;54;20038;31
2022/09/11 13:31:04;;;;;;;4.88;4.47;;;19.00;99.90;;;;;;2585901;54;20248;31
2022/09/11 13:33:39;;;;;;;5.10;4.35;;;19.00;99.90;;;;;;2585821;54;20033;31
2022/09/11 13:36:14;;;;;;;5.97;4.70;;;19.00;99.90;;;;;;2584819;54;20917;31
2022/09/11 13:38:53;;;;;;;4.53;4.13;;;18.90;99.90;;;;;;2585264;54;20920;31
2022/09/11 13:41:30;;;;;;;5.03;4.22;;;19.00;99.90;;;;;;2585522;54;20026;31
2022/09/11 13:44:11;;;;;;;4.50;4.10;;;19.00;99.90;;;;;;2585931;54;20022;31
2022/09/11 13:46:52;;;;;;;4.55;4.00;;;19.00;99.90;;;;;;2585556;54;20089;31
2022/09/11 13:49:26;;;;;;;5.25;4.13;;;19.00;99.90;;;;;;2585611;54;19934;31
2022/09/11 13:52:00;;;;;;;4.88;4.40;;;19.10;99.90;;;;;;2585634;54;20806;31
2022/09/11 13:54:43;;;;;;;5.40;4.35;;;19.10;99.90;;;;;;2585682;54;20031;31
2022/09/11 13:57:19;;;;;;;7.53;4.78;;;19.20;99.90;;;;;;2585784;54;20026;31
2022/09/11 13:59:55;;;;;;;7.35;5.25;;;19.20;99.90;;;;;;2584702;54;20935;31
2022/09/11 14:02:47;;;;;;;6.32;4.85;;;19.30;99.90;;;;;;2584774;54;20046;31
2022/09/11 14:05:24;;;;;;;5.80;5.20;;;19.20;99.90;;;;;;2603545;46;20994;31